sensor_id;sensor_type;location;lat;lon;timestamp;pressure;altitude;pressure_sealevel;temperature
70668;BMP280;58242;51.250;-1.118;2023-09-30T00:02:21;101208.09;;;20.59
70668;BMP280;58242;51.250;-1.118;2023-09-30T00:04:47;101212.38;;;20.60
70668;BMP280;58242;51.250;-1.118;2023-09-30T00:07:12;101213.19;;;20.60
70668;BMP280;58242;51.250;-1.118;2023-09-30T00:09:37;101212.72;;;20.58
70668;BMP280;58242;51.250;-1.118;2023-09-30T00:12:03;101210.81;;;20.59
70668;BMP280;58242;51.250;-1.118;2023-09-30T00:14:28;101206.50;;;20.58
70668;BMP280;58242;51.250;-1.118;2023-09-30T00:16:54;101196.81;;;20.57
70668;BMP280;58242;51.250;-1.118;2023-09-30T00:19:20;101196.38;;;20.55
70668;BMP280;58242;51.250;-1.118;2023-09-30T00:21:48;101209.16;;;20.55
70668;BMP280;58242;51.250;-1.118;2023-09-30T00:24:13;101211.88;;;20.55
70668;BMP280;58242;51.250;-1.118;2023-09-30T00:26:38;101202.19;;;20.54
70668;BMP280;58242;51.250;-1.118;2023-09-30T00:29:04;101206.44;;;20.55
70668;BMP280;58242;51.250;-1.118;2023-09-30T00:31:30;101201.41;;;20.53
70668;BMP280;58242;51.250;-1.118;2023-09-30T00:33:55;101195.97;;;20.53
70668;BMP280;58242;51.250;-1.118;2023-09-30T00:36:21;101209.53;;;20.53
70668;BMP280;58242;51.250;-1.118;2023-09-30T00:38:47;101207.63;;;20.54
70668;BMP280;58242;51.250;-1.118;2023-09-30T00:41:12;101211.47;;;20.53
70668;BMP280;58242;51.250;-1.118;2023-09-30T00:43:37;101221.56;;;20.52
70668;BMP280;58242;51.250;-1.118;2023-09-30T00:48:47;101228.50;;;20.50
70668;BMP280;58242;51.250;-1.118;2023-09-30T00:51:13;101224.22;;;20.49
70668;BMP280;58242;51.250;-1.118;2023-09-30T00:53:39;101220.28;;;20.46
70668;BMP280;58242;51.250;-1.118;2023-09-30T00:56:05;101212.50;;;20.45
70668;BMP280;58242;51.250;-1.118;2023-09-30T00:58:31;101224.09;;;20.42
70668;BMP280;58242;51.250;-1.118;2023-09-30T01:00:59;101231.72;;;20.37
70668;BMP280;58242;51.250;-1.118;2023-09-30T01:03:25;101230.09;;;20.32
70668;BMP280;58242;51.250;-1.118;2023-09-30T01:05:50;101221.06;;;20.28
70668;BMP280;58242;51.250;-1.118;2023-09-30T01:08:16;101221.00;;;20.25
70668;BMP280;58242;51.250;-1.118;2023-09-30T01:10:42;101210.84;;;20.22
70668;BMP280;58242;51.250;-1.118;2023-09-30T01:13:08;101211.19;;;20.21
70668;BMP280;58242;51.250;-1.118;2023-09-30T01:15:33;101212.38;;;20.20
70668;BMP280;58242;51.250;-1.118;2023-09-30T01:17:58;101207.72;;;20.20
70668;BMP280;58242;51.250;-1.118;2023-09-30T01:20:24;101218.59;;;20.20
70668;BMP280;58242;51.250;-1.118;2023-09-30T01:22:49;101214.72;;;20.21
70668;BMP280;58242;51.250;-1.118;2023-09-30T01:25:15;101205.00;;;20.20
70668;BMP280;58242;51.250;-1.118;2023-09-30T01:27:41;101213.91;;;20.21
70668;BMP280;58242;51.250;-1.118;2023-09-30T01:30:06;101217.78;;;20.20
70668;BMP280;58242;51.250;-1.118;2023-09-30T01:32:36;101209.66;;;20.20
70668;BMP280;58242;51.250;-1.118;2023-09-30T01:35:02;101210.44;;;20.20
70668;BMP280;58242;51.250;-1.118;2023-09-30T01:37:27;101218.59;;;20.20
70668;BMP280;58242;51.250;-1.118;2023-09-30T01:39:53;101202.66;;;20.19
70668;BMP280;58242;51.250;-1.118;2023-09-30T01:42:20;101205.34;;;20.19
70668;BMP280;58242;51.250;-1.118;2023-09-30T01:44:45;101191.78;;;20.19
70668;BMP280;58242;51.250;-1.118;2023-09-30T01:47:10;101188.63;;;20.17
70668;BMP280;58242;51.250;-1.118;2023-09-30T01:49:37;101201.78;;;20.15
70668;BMP280;58242;51.250;-1.118;2023-09-30T01:52:02;101202.94;;;20.14
70668;BMP280;58242;51.250;-1.118;2023-09-30T01:54:28;101211.78;;;20.11
70668;BMP280;58242;51.250;-1.118;2023-09-30T01:56:53;101212.50;;;20.08
70668;BMP280;58242;51.250;-1.118;2023-09-30T01:59:18;101199.66;;;20.05
70668;BMP280;58242;51.250;-1.118;2023-09-30T02:01:44;101202.28;;;20.02
70668;BMP280;58242;51.250;-1.118;2023-09-30T02:04:11;101179.38;;;19.99
70668;BMP280;58242;51.250;-1.118;2023-09-30T02:06:37;101175.78;;;19.95
70668;BMP280;58242;51.250;-1.118;2023-09-30T02:09:03;101173.81;;;19.92
70668;BMP280;58242;51.250;-1.118;2023-09-30T02:11:29;101189.66;;;19.90
70668;BMP280;58242;51.250;-1.118;2023-09-30T02:13:55;101189.22;;;19.88
70668;BMP280;58242;51.250;-1.118;2023-09-30T02:16:20;101177.94;;;19.87
70668;BMP280;58242;51.250;-1.118;2023-09-30T02:18:45;101181.03;;;19.85
70668;BMP280;58242;51.250;-1.118;2023-09-30T02:21:11;101168.94;;;19.83
70668;BMP280;58242;51.250;-1.118;2023-09-30T02:23:36;101176.66;;;19.81
70668;BMP280;58242;51.250;-1.118;2023-09-30T02:26:02;101165.38;;;19.79
70668;BMP280;58242;51.250;-1.118;2023-09-30T02:28:28;101174.59;;;19.74
70668;BMP280;58242;51.250;-1.118;2023-09-30T02:30:55;101177.59;;;19.70
70668;BMP280;58242;51.250;-1.118;2023-09-30T02:33:20;101178.25;;;19.63
70668;BMP280;58242;51.250;-1.118;2023-09-30T02:35:45;101184.72;;;19.59
70668;BMP280;58242;51.250;-1.118;2023-09-30T02:38:12;101170.66;;;19.53
70668;BMP280;58242;51.250;-1.118;2023-09-30T02:40:37;101166.63;;;19.48
70668;BMP280;58242;51.250;-1.118;2023-09-30T02:43:03;101166.09;;;19.42
70668;BMP280;58242;51.250;-1.118;2023-09-30T02:45:29;101167.53;;;19.36
70668;BMP280;58242;51.250;-1.118;2023-09-30T02:47:54;101168.94;;;19.31
70668;BMP280;58242;51.250;-1.118;2023-09-30T02:50:20;101171.16;;;19.25
70668;BMP280;58242;51.250;-1.118;2023-09-30T02:52:46;101176.50;;;19.22
70668;BMP280;58242;51.250;-1.118;2023-09-30T02:55:12;101174.84;;;19.18
70668;BMP280;58242;51.250;-1.118;2023-09-30T02:57:38;101172.81;;;19.15
70668;BMP280;58242;51.250;-1.118;2023-09-30T03:00:05;101175.44;;;19.11
70668;BMP280;58242;51.250;-1.118;2023-09-30T03:02:52;101173.81;;;19.07
70668;BMP280;58242;51.250;-1.118;2023-09-30T03:05:18;101166.75;;;19.02
70668;BMP280;58242;51.250;-1.118;2023-09-30T03:07:43;101167.41;;;19.00
70668;BMP280;58242;51.250;-1.118;2023-09-30T03:10:09;101171.22;;;18.95
70668;BMP280;58242;51.250;-1.118;2023-09-30T03:12:35;101173.06;;;18.91
70668;BMP280;58242;51.250;-1.118;2023-09-30T03:15:00;101174.91;;;18.87
70668;BMP280;58242;51.250;-1.118;2023-09-30T03:17:32;101179.44;;;18.84
70668;BMP280;58242;51.250;-1.118;2023-09-30T03:19:58;101182.41;;;18.79
70668;BMP280;58242;51.250;-1.118;2023-09-30T03:22:27;101191.25;;;18.76
70668;BMP280;58242;51.250;-1.118;2023-09-30T03:24:54;101183.81;;;18.73
70668;BMP280;58242;51.250;-1.118;2023-09-30T03:27:19;101191.94;;;18.73
70668;BMP280;58242;51.250;-1.118;2023-09-30T03:29:45;101176.81;;;18.72
70668;BMP280;58242;51.250;-1.118;2023-09-30T03:32:11;101179.88;;;18.70
70668;BMP280;58242;51.250;-1.118;2023-09-30T03:34:36;101187.66;;;18.72
70668;BMP280;58242;51.250;-1.118;2023-09-30T03:37:01;101179.16;;;18.73
70668;BMP280;58242;51.250;-1.118;2023-09-30T03:39:27;101179.63;;;18.75
70668;BMP280;58242;51.250;-1.118;2023-09-30T03:41:56;101166.16;;;18.79
70668;BMP280;58242;51.250;-1.118;2023-09-30T03:44:22;101166.59;;;18.81
70668;BMP280;58242;51.250;-1.118;2023-09-30T03:46:48;101163.97;;;18.84
70668;BMP280;58242;51.250;-1.118;2023-09-30T03:49:13;101155.47;;;18.85
70668;BMP280;58242;51.250;-1.118;2023-09-30T03:51:39;101142.38;;;18.87
70668;BMP280;58242;51.250;-1.118;2023-09-30T03:54:04;101136.25;;;18.90
70668;BMP280;58242;51.250;-1.118;2023-09-30T03:56:31;101147.16;;;18.94
70668;BMP280;58242;51.250;-1.118;2023-09-30T03:58:56;101143.75;;;18.97
70668;BMP280;58242;51.250;-1.118;2023-09-30T04:01:21;101141.47;;;18.99
70668;BMP280;58242;51.250;-1.118;2023-09-30T04:03:48;101141.09;;;19.00
70668;BMP280;58242;51.250;-1.118;2023-09-30T04:06:14;101131.84;;;19.01
70668;BMP280;58242;51.250;-1.118;2023-09-30T04:08:39;101129.59;;;19.03
70668;BMP280;58242;51.250;-1.118;2023-09-30T04:11:05;101121.09;;;19.04
70668;BMP280;58242;51.250;-1.118;2023-09-30T04:13:31;101126.97;;;19.06
70668;BMP280;58242;51.250;-1.118;2023-09-30T04:15:56;101132.00;;;19.08
70668;BMP280;58242;51.250;-1.118;2023-09-30T04:18:25;101126.25;;;19.09
70668;BMP280;58242;51.250;-1.118;2023-09-30T04:20:54;101117.41;;;19.12
70668;BMP280;58242;51.250;-1.118;2023-09-30T04:23:20;101115.81;;;19.11
70668;BMP280;58242;51.250;-1.118;2023-09-30T04:25:46;101123.59;;;19.13
70668;BMP280;58242;51.250;-1.118;2023-09-30T04:28:12;101119.31;;;19.12
70668;BMP280;58242;51.250;-1.118;2023-09-30T04:30:38;101125.53;;;19.12
70668;BMP280;58242;51.250;-1.118;2023-09-30T04:33:04;101127.09;;;19.13
70668;BMP280;58242;51.250;-1.118;2023-09-30T04:35:30;101141.88;;;19.16
70668;BMP280;58242;51.250;-1.118;2023-09-30T04:37:56;101135.31;;;19.17
70668;BMP280;58242;51.250;-1.118;2023-09-30T04:40:22;101135.72;;;19.18
70668;BMP280;58242;51.250;-1.118;2023-09-30T04:42:48;101129.19;;;19.19
70668;BMP280;58242;51.250;-1.118;2023-09-30T04:45:13;101140.81;;;19.20
70668;BMP280;58242;51.250;-1.118;2023-09-30T04:47:42;101136.97;;;19.21
70668;BMP280;58242;51.250;-1.118;2023-09-30T04:50:09;101124.19;;;19.21
70668;BMP280;58242;51.250;-1.118;2023-09-30T04:52:36;101125.75;;;19.22
70668;BMP280;58242;51.250;-1.118;2023-09-30T04:55:02;101135.84;;;19.22
70668;BMP280;58242;51.250;-1.118;2023-09-30T04:57:29;101128.47;;;19.22
70668;BMP280;58242;51.250;-1.118;2023-09-30T04:59:55;101127.31;;;19.23
70668;BMP280;58242;51.250;-1.118;2023-09-30T05:02:20;101130.03;;;19.23
70668;BMP280;58242;51.250;-1.118;2023-09-30T05:04:46;101126.97;;;19.25
70668;BMP280;58242;51.250;-1.118;2023-09-30T05:07:11;101140.16;;;19.26
70668;BMP280;58242;51.250;-1.118;2023-09-30T05:09:38;101138.25;;;19.27
70668;BMP280;58242;51.250;-1.118;2023-09-30T05:12:04;101136.31;;;19.27
70668;BMP280;58242;51.250;-1.118;2023-09-30T05:14:29;101134.41;;;19.28
70668;BMP280;58242;51.250;-1.118;2023-09-30T05:16:55;101130.56;;;19.29
70668;BMP280;58242;51.250;-1.118;2023-09-30T05:19:21;101127.84;;;19.29
70668;BMP280;58242;51.250;-1.118;2023-09-30T05:21:47;101139.50;;;19.29
70668;BMP280;58242;51.250;-1.118;2023-09-30T05:24:12;101140.25;;;19.30
70668;BMP280;58242;51.250;-1.118;2023-09-30T05:26:37;101139.50;;;19.29
70668;BMP280;58242;51.250;-1.118;2023-09-30T05:29:03;101139.81;;;19.28
70668;BMP280;58242;51.250;-1.118;2023-09-30T05:31:28;101134.41;;;19.28
70668;BMP280;58242;51.250;-1.118;2023-09-30T05:33:54;101136.31;;;19.27
70668;BMP280;58242;51.250;-1.118;2023-09-30T05:36:20;101134.75;;;19.26
70668;BMP280;58242;51.250;-1.118;2023-09-30T05:38:46;101134.34;;;19.24
70668;BMP280;58242;51.250;-1.118;2023-09-30T05:41:14;101134.66;;;19.23
70668;BMP280;58242;51.250;-1.118;2023-09-30T05:43:39;101141.59;;;19.20
70668;BMP280;58242;51.250;-1.118;2023-09-30T05:46:06;101143.88;;;19.18
70668;BMP280;58242;51.250;-1.118;2023-09-30T05:48:31;101139.16;;;19.16
70668;BMP280;58242;51.250;-1.118;2023-09-30T05:50:56;101148.78;;;19.13
70668;BMP280;58242;51.250;-1.118;2023-09-30T05:53:22;101153.75;;;19.11
70668;BMP280;58242;51.250;-1.118;2023-09-30T05:55:47;101159.91;;;19.08
70668;BMP280;58242;51.250;-1.118;2023-09-30T05:58:14;101161.41;;;19.06
70668;BMP280;58242;51.250;-1.118;2023-09-30T06:00:42;101164.03;;;19.02
70668;BMP280;58242;51.250;-1.118;2023-09-30T06:03:08;101165.09;;;18.98
70668;BMP280;58242;51.250;-1.118;2023-09-30T06:05:33;101169.28;;;18.96
70668;BMP280;58242;51.250;-1.118;2023-09-30T06:08:00;101158.34;;;18.92
70668;BMP280;58242;51.250;-1.118;2023-09-30T06:10:28;101149.34;;;18.88
70668;BMP280;58242;51.250;-1.118;2023-09-30T06:12:53;101157.06;;;18.86
70668;BMP280;58242;51.250;-1.118;2023-09-30T06:15:20;101158.97;;;18.86
70668;BMP280;58242;51.250;-1.118;2023-09-30T06:17:51;101165.53;;;18.85
70668;BMP280;58242;51.250;-1.118;2023-09-30T06:20:18;101172.88;;;18.84
70668;BMP280;58242;51.250;-1.118;2023-09-30T06:22:44;101170.94;;;18.85
70668;BMP280;58242;51.250;-1.118;2023-09-30T06:25:15;101182.56;;;18.85
70668;BMP280;58242;51.250;-1.118;2023-09-30T06:27:44;101185.28;;;18.85
70668;BMP280;58242;51.250;-1.118;2023-09-30T06:30:11;101182.94;;;18.84
70668;BMP280;58242;51.250;-1.118;2023-09-30T06:32:37;101192.19;;;18.83
70668;BMP280;58242;51.250;-1.118;2023-09-30T06:35:04;101196.81;;;18.83
70668;BMP280;58242;51.250;-1.118;2023-09-30T06:37:31;101204.09;;;18.79
70668;BMP280;58242;51.250;-1.118;2023-09-30T06:39:56;101192.81;;;18.77
70668;BMP280;58242;51.250;-1.118;2023-09-30T06:42:22;101195.41;;;18.73
70668;BMP280;58242;51.250;-1.118;2023-09-30T06:44:47;101189.91;;;18.70
70668;BMP280;58242;51.250;-1.118;2023-09-30T06:47:12;101197.63;;;18.68
70668;BMP280;58242;51.250;-1.118;2023-09-30T06:49:38;101190.63;;;18.67
70668;BMP280;58242;51.250;-1.118;2023-09-30T06:52:04;101176.63;;;18.65
70668;BMP280;58242;51.250;-1.118;2023-09-30T06:54:31;101172.00;;;18.66
70668;BMP280;58242;51.250;-1.118;2023-09-30T06:56:57;101175.03;;;18.64
70668;BMP280;58242;51.250;-1.118;2023-09-30T06:59:22;101173.91;;;18.65
70668;BMP280;58242;51.250;-1.118;2023-09-30T07:01:47;101180.88;;;18.66
70668;BMP280;58242;51.250;-1.118;2023-09-30T07:04:13;101189.13;;;18.69
70668;BMP280;58242;51.250;-1.118;2023-09-30T07:06:38;101193.16;;;18.75
70668;BMP280;58242;51.250;-1.118;2023-09-30T07:09:03;101198.03;;;18.85
70668;BMP280;58242;51.250;-1.118;2023-09-30T07:11:30;101195.25;;;18.97
70668;BMP280;58242;51.250;-1.118;2023-09-30T07:13:58;101199.78;;;19.08
70668;BMP280;58242;51.250;-1.118;2023-09-30T07:16:23;101210.97;;;19.21
70668;BMP280;58242;51.250;-1.118;2023-09-30T07:18:49;101209.28;;;19.32
70668;BMP280;58242;51.250;-1.118;2023-09-30T07:21:15;101230.13;;;19.47
70668;BMP280;58242;51.250;-1.118;2023-09-30T07:23:41;101225.50;;;19.62
70668;BMP280;58242;51.250;-1.118;2023-09-30T07:26:06;101228.09;;;19.74
70668;BMP280;58242;51.250;-1.118;2023-09-30T07:28:33;101214.38;;;19.86
70668;BMP280;58242;51.250;-1.118;2023-09-30T07:30:58;101208.38;;;19.95
70668;BMP280;58242;51.250;-1.118;2023-09-30T07:33:23;101213.94;;;20.02
70668;BMP280;58242;51.250;-1.118;2023-09-30T07:35:49;101216.09;;;20.12
70668;BMP280;58242;51.250;-1.118;2023-09-30T07:38:15;101226.34;;;20.21
70668;BMP280;58242;51.250;-1.118;2023-09-30T07:40:40;101224.25;;;20.30
70668;BMP280;58242;51.250;-1.118;2023-09-30T07:43:06;101221.44;;;20.45
70668;BMP280;58242;51.250;-1.118;2023-09-30T07:45:31;101220.59;;;20.63
70668;BMP280;58242;51.250;-1.118;2023-09-30T07:47:57;101222.53;;;20.85
70668;BMP280;58242;51.250;-1.118;2023-09-30T07:50:24;101227.31;;;21.13
70668;BMP280;58242;51.250;-1.118;2023-09-30T07:52:49;101229.47;;;21.51
70668;BMP280;58242;51.250;-1.118;2023-09-30T07:55:15;101224.28;;;21.97
70668;BMP280;58242;51.250;-1.118;2023-09-30T07:57:42;101230.03;;;22.53
70668;BMP280;58242;51.250;-1.118;2023-09-30T08:00:08;101217.34;;;23.16
70668;BMP280;58242;51.250;-1.118;2023-09-30T08:02:34;101223.66;;;23.83
70668;BMP280;58242;51.250;-1.118;2023-09-30T08:04:59;101209.44;;;24.43
70668;BMP280;58242;51.250;-1.118;2023-09-30T08:07:26;101209.94;;;25.00
70668;BMP280;58242;51.250;-1.118;2023-09-30T08:09:51;101211.47;;;25.58
70668;BMP280;58242;51.250;-1.118;2023-09-30T08:12:16;101214.38;;;26.22
70668;BMP280;58242;51.250;-1.118;2023-09-30T08:14:42;101233.19;;;26.86
70668;BMP280;58242;51.250;-1.118;2023-09-30T08:17:09;101219.72;;;27.48
70668;BMP280;58242;51.250;-1.118;2023-09-30T08:19:35;101226.97;;;28.04
70668;BMP280;58242;51.250;-1.118;2023-09-30T08:22:01;101221.47;;;28.62
70668;BMP280;58242;51.250;-1.118;2023-09-30T08:24:28;101220.53;;;29.20
70668;BMP280;58242;51.250;-1.118;2023-09-30T08:26:54;101204.56;;;29.75
70668;BMP280;58242;51.250;-1.118;2023-09-30T08:29:20;101211.91;;;30.20
70668;BMP280;58242;51.250;-1.118;2023-09-30T08:31:46;101226.19;;;30.68
70668;BMP280;58242;51.250;-1.118;2023-09-30T08:34:12;101219.88;;;31.18
70668;BMP280;58242;51.250;-1.118;2023-09-30T08:36:39;101227.69;;;31.66
70668;BMP280;58242;51.250;-1.118;2023-09-30T08:39:04;101227.22;;;32.11
70668;BMP280;58242;51.250;-1.118;2023-09-30T08:41:33;101218.22;;;32.59
70668;BMP280;58242;51.250;-1.118;2023-09-30T08:44:00;101207.44;;;33.21
70668;BMP280;58242;51.250;-1.118;2023-09-30T08:46:29;101222.25;;;33.85
70668;BMP280;58242;51.250;-1.118;2023-09-30T08:48:57;101221.84;;;34.37
70668;BMP280;58242;51.250;-1.118;2023-09-30T08:51:23;101211.41;;;34.49
70668;BMP280;58242;51.250;-1.118;2023-09-30T08:53:50;101207.94;;;34.66
70668;BMP280;58242;51.250;-1.118;2023-09-30T08:56:19;101214.31;;;34.75
70668;BMP280;58242;51.250;-1.118;2023-09-30T08:58:45;101219.44;;;34.77
70668;BMP280;58242;51.250;-1.118;2023-09-30T09:01:11;101220.22;;;34.77
70668;BMP280;58242;51.250;-1.118;2023-09-30T09:03:36;101207.88;;;34.87
70668;BMP280;58242;51.250;-1.118;2023-09-30T09:06:02;101212.28;;;35.14
70668;BMP280;58242;51.250;-1.118;2023-09-30T09:08:27;101217.78;;;35.53
70668;BMP280;58242;51.250;-1.118;2023-09-30T09:10:55;101218.59;;;36.06
70668;BMP280;58242;51.250;-1.118;2023-09-30T09:13:21;101210.53;;;36.65
70668;BMP280;58242;51.250;-1.118;2023-09-30T09:15:47;101213.78;;;37.27
70668;BMP280;58242;51.250;-1.118;2023-09-30T09:18:14;101187.00;;;37.44
70668;BMP280;58242;51.250;-1.118;2023-09-30T09:23:46;101182.06;;;36.62
70668;BMP280;58242;51.250;-1.118;2023-09-30T09:26:27;101202.47;;;35.92
70668;BMP280;58242;51.250;-1.118;2023-09-30T09:29:03;101195.50;;;35.26
70668;BMP280;58242;51.250;-1.118;2023-09-30T09:31:31;101196.34;;;34.68
70668;BMP280;58242;51.250;-1.118;2023-09-30T09:33:57;101192.41;;;34.18
70668;BMP280;58242;51.250;-1.118;2023-09-30T09:36:39;101184.44;;;33.66
70668;BMP280;58242;51.250;-1.118;2023-09-30T09:39:06;101180.81;;;33.24
70668;BMP280;58242;51.250;-1.118;2023-09-30T09:41:31;101188.75;;;32.77
70668;BMP280;58242;51.250;-1.118;2023-09-30T09:43:58;101183.84;;;32.32
70668;BMP280;58242;51.250;-1.118;2023-09-30T09:46:24;101170.91;;;31.89
70668;BMP280;58242;51.250;-1.118;2023-09-30T09:48:51;101179.94;;;31.50
70668;BMP280;58242;51.250;-1.118;2023-09-30T09:51:19;101197.16;;;31.10
70668;BMP280;58242;51.250;-1.118;2023-09-30T09:53:46;101197.56;;;30.78
70668;BMP280;58242;51.250;-1.118;2023-09-30T09:56:13;101199.44;;;30.50
70668;BMP280;58242;51.250;-1.118;2023-09-30T09:58:39;101196.69;;;30.31
70668;BMP280;58242;51.250;-1.118;2023-09-30T10:01:09;101187.94;;;30.17
70668;BMP280;58242;51.250;-1.118;2023-09-30T10:03:35;101173.19;;;30.07
70668;BMP280;58242;51.250;-1.118;2023-09-30T10:06:01;101193.41;;;30.01
70668;BMP280;58242;51.250;-1.118;2023-09-30T10:08:48;101189.13;;;30.00
70668;BMP280;58242;51.250;-1.118;2023-09-30T10:11:16;101181.81;;;29.90
70668;BMP280;58242;51.250;-1.118;2023-09-30T10:13:55;101179.63;;;30.01
70668;BMP280;58242;51.250;-1.118;2023-09-30T10:19:15;101182.19;;;30.27
70668;BMP280;58242;51.250;-1.118;2023-09-30T10:24:45;101166.69;;;30.83
70668;BMP280;58242;51.250;-1.118;2023-09-30T10:35:17;101150.63;;;33.38
70668;BMP280;58242;51.250;-1.118;2023-09-30T10:37:43;101142.97;;;33.63
70668;BMP280;58242;51.250;-1.118;2023-09-30T10:40:09;101144.34;;;33.79
70668;BMP280;58242;51.250;-1.118;2023-09-30T10:42:55;101125.38;;;33.78
70668;BMP280;58242;51.250;-1.118;2023-09-30T10:51:12;101128.44;;;35.24
70668;BMP280;58242;51.250;-1.118;2023-09-30T10:53:53;101124.44;;;35.60
70668;BMP280;58242;51.250;-1.118;2023-09-30T10:56:22;101122.44;;;35.61
70668;BMP280;58242;51.250;-1.118;2023-09-30T10:58:52;101136.03;;;35.41
70668;BMP280;58242;51.250;-1.118;2023-09-30T11:01:22;101136.78;;;35.16
70668;BMP280;58242;51.250;-1.118;2023-09-30T11:03:48;101137.16;;;34.79
70668;BMP280;58242;51.250;-1.118;2023-09-30T11:06:19;101124.78;;;34.33
70668;BMP280;58242;51.250;-1.118;2023-09-30T11:08:59;101119.69;;;33.81
70668;BMP280;58242;51.250;-1.118;2023-09-30T11:11:38;101111.69;;;33.41
70668;BMP280;58242;51.250;-1.118;2023-09-30T11:14:25;101118.41;;;33.32
70668;BMP280;58242;51.250;-1.118;2023-09-30T11:16:53;101115.69;;;33.28
70668;BMP280;58242;51.250;-1.118;2023-09-30T11:19:19;101118.72;;;33.33
70668;BMP280;58242;51.250;-1.118;2023-09-30T11:21:52;101108.53;;;33.72
70668;BMP280;58242;51.250;-1.118;2023-09-30T11:24:18;101110.78;;;34.16
70668;BMP280;58242;51.250;-1.118;2023-09-30T11:26:45;101116.81;;;34.53
70668;BMP280;58242;51.250;-1.118;2023-09-30T11:29:16;101104.13;;;34.81
70668;BMP280;58242;51.250;-1.118;2023-09-30T11:31:42;101104.75;;;34.85
70668;BMP280;58242;51.250;-1.118;2023-09-30T11:34:09;101111.25;;;34.82
70668;BMP280;58242;51.250;-1.118;2023-09-30T11:36:39;101096.44;;;34.94
70668;BMP280;58242;51.250;-1.118;2023-09-30T11:39:08;101100.75;;;34.86
70668;BMP280;58242;51.250;-1.118;2023-09-30T11:41:38;101102.66;;;34.59
70668;BMP280;58242;51.250;-1.118;2023-09-30T11:44:09;101086.25;;;34.44
70668;BMP280;58242;51.250;-1.118;2023-09-30T11:46:49;101075.59;;;34.42
70668;BMP280;58242;51.250;-1.118;2023-09-30T11:49:24;101073.16;;;34.53
70668;BMP280;58242;51.250;-1.118;2023-09-30T11:51:51;101078.38;;;34.34
70668;BMP280;58242;51.250;-1.118;2023-09-30T11:54:16;101082.59;;;34.17
70668;BMP280;58242;51.250;-1.118;2023-09-30T11:56:42;101084.38;;;34.32
70668;BMP280;58242;51.250;-1.118;2023-09-30T11:59:07;101077.72;;;34.30
70668;BMP280;58242;51.250;-1.118;2023-09-30T12:01:38;101065.88;;;34.08
70668;BMP280;58242;51.250;-1.118;2023-09-30T12:04:04;101058.56;;;33.93
70668;BMP280;58242;51.250;-1.118;2023-09-30T12:06:29;101048.53;;;33.87
70668;BMP280;58242;51.250;-1.118;2023-09-30T12:08:55;101052.91;;;33.76
70668;BMP280;58242;51.250;-1.118;2023-09-30T12:11:21;101049.84;;;33.53
70668;BMP280;58242;51.250;-1.118;2023-09-30T12:13:49;101037.53;;;33.33
70668;BMP280;58242;51.250;-1.118;2023-09-30T12:16:15;101045.06;;;33.12
70668;BMP280;58242;51.250;-1.118;2023-09-30T12:18:41;101037.34;;;32.95
70668;BMP280;58242;51.250;-1.118;2023-09-30T12:21:10;101035.16;;;32.90
70668;BMP280;58242;51.250;-1.118;2023-09-30T12:23:36;101041.38;;;32.81
70668;BMP280;58242;51.250;-1.118;2023-09-30T12:26:02;101041.09;;;32.67
70668;BMP280;58242;51.250;-1.118;2023-09-30T12:28:31;101038.13;;;32.50
70668;BMP280;58242;51.250;-1.118;2023-09-30T12:30:57;101041.00;;;32.47
70668;BMP280;58242;51.250;-1.118;2023-09-30T12:33:23;101027.16;;;32.59
70668;BMP280;58242;51.250;-1.118;2023-09-30T12:35:48;101028.97;;;32.74
70668;BMP280;58242;51.250;-1.118;2023-09-30T12:38:14;101015.69;;;33.02
70668;BMP280;58242;51.250;-1.118;2023-09-30T12:40:41;101032.41;;;33.11
70668;BMP280;58242;51.250;-1.118;2023-09-30T12:43:06;101021.53;;;33.16
70668;BMP280;58242;51.250;-1.118;2023-09-30T12:45:32;101029.31;;;33.09
70668;BMP280;58242;51.250;-1.118;2023-09-30T12:47:57;101028.28;;;32.94
70668;BMP280;58242;51.250;-1.118;2023-09-30T12:50:23;101013.44;;;32.76
70668;BMP280;58242;51.250;-1.118;2023-09-30T12:52:48;101019.16;;;32.61
70668;BMP280;58242;51.250;-1.118;2023-09-30T12:55:14;101017.53;;;32.51
70668;BMP280;58242;51.250;-1.118;2023-09-30T12:57:39;101021.31;;;32.32
70668;BMP280;58242;51.250;-1.118;2023-09-30T13:00:05;101014.75;;;32.27
70668;BMP280;58242;51.250;-1.118;2023-09-30T13:02:34;101011.03;;;32.21
70668;BMP280;58242;51.250;-1.118;2023-09-30T13:04:59;101001.75;;;32.15
70668;BMP280;58242;51.250;-1.118;2023-09-30T13:07:25;101004.94;;;32.13
70668;BMP280;58242;51.250;-1.118;2023-09-30T13:09:50;100997.97;;;32.21
70668;BMP280;58242;51.250;-1.118;2023-09-30T13:12:15;101005.69;;;32.38
70668;BMP280;58242;51.250;-1.118;2023-09-30T13:14:41;101007.88;;;32.55
70668;BMP280;58242;51.250;-1.118;2023-09-30T13:17:07;101013.53;;;32.64
70668;BMP280;58242;51.250;-1.118;2023-09-30T13:19:32;101004.50;;;32.72
70668;BMP280;58242;51.250;-1.118;2023-09-30T13:21:58;101003.03;;;32.80
70668;BMP280;58242;51.250;-1.118;2023-09-30T13:24:23;101000.03;;;32.87
70668;BMP280;58242;51.250;-1.118;2023-09-30T13:26:48;101003.28;;;32.85
70668;BMP280;58242;51.250;-1.118;2023-09-30T13:29:15;101002.97;;;32.71
70668;BMP280;58242;51.250;-1.118;2023-09-30T13:31:42;101003.03;;;32.47
70668;BMP280;58242;51.250;-1.118;2023-09-30T13:34:07;101001.50;;;32.22
70668;BMP280;58242;51.250;-1.118;2023-09-30T13:36:33;101000.06;;;31.93
70668;BMP280;58242;51.250;-1.118;2023-09-30T13:38:58;101012.00;;;31.66
70668;BMP280;58242;51.250;-1.118;2023-09-30T13:41:24;100996.16;;;31.42
70668;BMP280;58242;51.250;-1.118;2023-09-30T13:43:49;100992.75;;;31.23
70668;BMP280;58242;51.250;-1.118;2023-09-30T13:46:14;100988.91;;;31.20
70668;BMP280;58242;51.250;-1.118;2023-09-30T13:48:41;100987.69;;;31.33
70668;BMP280;58242;51.250;-1.118;2023-09-30T13:51:07;100995.38;;;31.42
70668;BMP280;58242;51.250;-1.118;2023-09-30T13:53:33;100995.38;;;31.42
70668;BMP280;58242;51.250;-1.118;2023-09-30T13:55:58;100992.81;;;31.35
70668;BMP280;58242;51.250;-1.118;2023-09-30T13:58:24;100992.53;;;31.29
70668;BMP280;58242;51.250;-1.118;2023-09-30T14:00:52;100989.31;;;31.19
70668;BMP280;58242;51.250;-1.118;2023-09-30T14:03:18;100985.50;;;31.01
70668;BMP280;58242;51.250;-1.118;2023-09-30T14:05:44;100979.75;;;30.80
70668;BMP280;58242;51.250;-1.118;2023-09-30T14:08:10;100961.34;;;30.61